sensor_id;sensor_type;location;lat;lon;timestamp;P1;durP1;ratioP1;P2;durP2;ratioP2
56297;SDS011;42208;6.376;-10.782;2022-08-25T00:01:38;15.88;;;7.50;;
56297;SDS011;42208;6.376;-10.782;2022-08-25T00:04:12;18.58;;;7.63;;
56297;SDS011;42208;6.376;-10.782;2022-08-25T00:06:43;20.23;;;7.27;;
56297;SDS011;42208;6.376;-10.782;2022-08-25T00:09:15;21.95;;;9.00;;
56297;SDS011;42208;6.376;-10.782;2022-08-25T00:11:46;20.63;;;8.52;;
56297;SDS011;42208;6.376;-10.782;2022-08-25T00:14:17;20.48;;;7.70;;
56297;SDS011;42208;6.376;-10.782;2022-08-25T00:19:17;20.55;;;8.02;;
56297;SDS011;42208;6.376;-10.782;2022-08-25T00:21:49;13.98;;;8.43;;
56297;SDS011;42208;6.376;-10.782;2022-08-25T00:24:17;20.30;;;8.40;;
56297;SDS011;42208;6.376;-10.782;2022-08-25T00:26:49;19.60;;;8.77;;
56297;SDS011;42208;6.376;-10.782;2022-08-25T00:31:47;27.25;;;10.75;;
56297;SDS011;42208;6.376;-10.782;2022-08-25T00:34:18;20.02;;;11.18;;
56297;SDS011;42208;6.376;-10.782;2022-08-25T00:36:48;18.63;;;10.10;;
56297;SDS011;42208;6.376;-10.782;2022-08-25T00:39:17;23.58;;;9.88;;
56297;SDS011;42208;6.376;-10.782;2022-08-25T00:41:48;25.13;;;11.38;;
56297;SDS011;42208;6.376;-10.782;2022-08-25T00:44:18;21.17;;;12.45;;
56297;SDS011;42208;6.376;-10.782;2022-08-25T00:46:48;20.02;;;9.10;;
56297;SDS011;42208;6.376;-10.782;2022-08-25T00:49:38;19.95;;;9.90;;
56297;SDS011;42208;6.376;-10.782;2022-08-25T00:52:12;21.33;;;9.52;;
56297;SDS011;42208;6.376;-10.782;2022-08-25T00:54:58;21.00;;;10.23;;
56297;SDS011;42208;6.376;-10.782;2022-08-25T00:57:45;21.90;;;9.38;;
56297;SDS011;42208;6.376;-10.782;2022-08-25T01:00:26;20.88;;;8.90;;
56297;SDS011;42208;6.376;-10.782;2022-08-25T01:02:57;19.70;;;9.13;;
56297;SDS011;42208;6.376;-10.782;2022-08-25T01:05:26;24.60;;;9.23;;
56297;SDS011;42208;6.376;-10.782;2022-08-25T01:07:55;20.33;;;9.20;;
56297;SDS011;42208;6.376;-10.782;2022-08-25T01:10:25;21.27;;;9.10;;
56297;SDS011;42208;6.376;-10.782;2022-08-25T01:12:59;20.08;;;9.18;;
56297;SDS011;42208;6.376;-10.782;2022-08-25T01:15:32;25.77;;;10.45;;
56297;SDS011;42208;6.376;-10.782;2022-08-25T01:18:03;29.17;;;9.70;;
56297;SDS011;42208;6.376;-10.782;2022-08-25T01:20:32;24.05;;;9.90;;
56297;SDS011;42208;6.376;-10.782;2022-08-25T01:23:00;23.38;;;9.00;;
56297;SDS011;42208;6.376;-10.782;2022-08-25T01:28:17;20.50;;;9.07;;
56297;SDS011;42208;6.376;-10.782;2022-08-25T01:30:47;23.83;;;9.65;;
56297;SDS011;42208;6.376;-10.782;2022-08-25T01:33:15;19.45;;;10.40;;
56297;SDS011;42208;6.376;-10.782;2022-08-25T01:35:44;27.38;;;11.57;;
56297;SDS011;42208;6.376;-10.782;2022-08-25T01:38:13;22.80;;;10.40;;
56297;SDS011;42208;6.376;-10.782;2022-08-25T01:40:43;26.08;;;9.98;;
56297;SDS011;42208;6.376;-10.782;2022-08-25T01:45:47;27.15;;;11.55;;
56297;SDS011;42208;6.376;-10.782;2022-08-25T01:48:17;25.77;;;10.68;;
56297;SDS011;42208;6.376;-10.782;2022-08-25T01:50:45;33.25;;;10.50;;
56297;SDS011;42208;6.376;-10.782;2022-08-25T01:53:18;20.05;;;9.95;;
56297;SDS011;42208;6.376;-10.782;2022-08-25T01:55:46;20.30;;;10.13;;
56297;SDS011;42208;6.376;-10.782;2022-08-25T01:58:15;19.08;;;9.80;;
56297;SDS011;42208;6.376;-10.782;2022-08-25T02:00:47;31.40;;;9.80;;
56297;SDS011;42208;6.376;-10.782;2022-08-25T02:03:16;28.10;;;10.00;;
56297;SDS011;42208;6.376;-10.782;2022-08-25T02:05:45;18.70;;;9.68;;
56297;SDS011;42208;6.376;-10.782;2022-08-25T02:08:14;24.75;;;9.75;;
56297;SDS011;42208;6.376;-10.782;2022-08-25T02:10:43;19.20;;;9.68;;
56297;SDS011;42208;6.376;-10.782;2022-08-25T02:13:12;16.45;;;9.05;;
56297;SDS011;42208;6.376;-10.782;2022-08-25T02:15:41;21.67;;;9.60;;
56297;SDS011;42208;6.376;-10.782;2022-08-25T02:18:12;23.77;;;10.43;;
56297;SDS011;42208;6.376;-10.782;2022-08-25T02:20:40;19.80;;;10.50;;
56297;SDS011;42208;6.376;-10.782;2022-08-25T02:23:09;21.48;;;9.32;;
56297;SDS011;42208;6.376;-10.782;2022-08-25T02:25:38;17.83;;;9.35;;
56297;SDS011;42208;6.376;-10.782;2022-08-25T02:28:08;22.60;;;9.60;;
56297;SDS011;42208;6.376;-10.782;2022-08-25T02:30:37;18.77;;;10.07;;
56297;SDS011;42208;6.376;-10.782;2022-08-25T02:33:07;20.92;;;9.00;;
56297;SDS011;42208;6.376;-10.782;2022-08-25T02:35:35;21.63;;;9.95;;
56297;SDS011;42208;6.376;-10.782;2022-08-25T02:38:05;22.08;;;9.05;;
56297;SDS011;42208;6.376;-10.782;2022-08-25T02:40:33;21.52;;;9.38;;
56297;SDS011;42208;6.376;-10.782;2022-08-25T02:43:01;19.42;;;9.63;;
56297;SDS011;42208;6.376;-10.782;2022-08-25T02:45:30;20.58;;;9.82;;
56297;SDS011;42208;6.376;-10.782;2022-08-25T02:47:58;18.48;;;9.02;;
56297;SDS011;42208;6.376;-10.782;2022-08-25T02:50:26;20.33;;;9.50;;
56297;SDS011;42208;6.376;-10.782;2022-08-25T02:52:54;24.88;;;9.90;;
56297;SDS011;42208;6.376;-10.782;2022-08-25T02:55:23;23.20;;;10.52;;
56297;SDS011;42208;6.376;-10.782;2022-08-25T02:57:51;26.60;;;10.18;;
56297;SDS011;42208;6.376;-10.782;2022-08-25T03:00:19;20.75;;;10.27;;
56297;SDS011;42208;6.376;-10.782;2022-08-25T03:02:49;27.83;;;10.52;;
56297;SDS011;42208;6.376;-10.782;2022-08-25T03:05:17;23.67;;;10.73;;
56297;SDS011;42208;6.376;-10.782;2022-08-25T03:07:45;19.95;;;9.93;;
56297;SDS011;42208;6.376;-10.782;2022-08-25T03:10:15;21.02;;;10.00;;
56297;SDS011;42208;6.376;-10.782;2022-08-25T03:12:44;20.73;;;10.93;;
56297;SDS011;42208;6.376;-10.782;2022-08-25T03:15:14;22.27;;;10.30;;
56297;SDS011;42208;6.376;-10.782;2022-08-25T03:17:43;21.33;;;9.93;;
56297;SDS011;42208;6.376;-10.782;2022-08-25T03:20:13;21.40;;;10.35;;
56297;SDS011;42208;6.376;-10.782;2022-08-25T03:22:41;23.52;;;10.35;;
56297;SDS011;42208;6.376;-10.782;2022-08-25T03:25:10;24.65;;;10.55;;
56297;SDS011;42208;6.376;-10.782;2022-08-25T03:27:38;21.02;;;10.38;;
56297;SDS011;42208;6.376;-10.782;2022-08-25T03:30:06;24.25;;;10.05;;
56297;SDS011;42208;6.376;-10.782;2022-08-25T03:32:35;23.10;;;10.00;;
56297;SDS011;42208;6.376;-10.782;2022-08-25T03:35:04;24.77;;;11.25;;
56297;SDS011;42208;6.376;-10.782;2022-08-25T03:37:33;29.27;;;10.80;;
56297;SDS011;42208;6.376;-10.782;2022-08-25T03:40:05;22.30;;;10.00;;
56297;SDS011;42208;6.376;-10.782;2022-08-25T03:42:42;20.15;;;9.90;;
56297;SDS011;42208;6.376;-10.782;2022-08-25T03:45:13;18.05;;;9.40;;
56297;SDS011;42208;6.376;-10.782;2022-08-25T03:47:44;17.20;;;9.05;;
56297;SDS011;42208;6.376;-10.782;2022-08-25T03:50:14;21.70;;;9.73;;
56297;SDS011;42208;6.376;-10.782;2022-08-25T03:52:48;18.98;;;10.82;;
56297;SDS011;42208;6.376;-10.782;2022-08-25T03:55:18;21.45;;;9.75;;
56297;SDS011;42208;6.376;-10.782;2022-08-25T03:57:48;25.15;;;10.07;;
56297;SDS011;42208;6.376;-10.782;2022-08-25T04:00:17;21.40;;;10.30;;
56297;SDS011;42208;6.376;-10.782;2022-08-25T04:02:46;18.60;;;9.77;;
56297;SDS011;42208;6.376;-10.782;2022-08-25T04:05:14;28.67;;;11.38;;
56297;SDS011;42208;6.376;-10.782;2022-08-25T04:07:43;24.10;;;10.13;;
56297;SDS011;42208;6.376;-10.782;2022-08-25T04:10:11;25.35;;;10.98;;
56297;SDS011;42208;6.376;-10.782;2022-08-25T04:12:39;22.67;;;11.27;;
56297;SDS011;42208;6.376;-10.782;2022-08-25T04:15:08;23.90;;;10.70;;
56297;SDS011;42208;6.376;-10.782;2022-08-25T04:17:37;22.08;;;11.07;;
56297;SDS011;42208;6.376;-10.782;2022-08-25T04:20:07;23.98;;;10.30;;
56297;SDS011;42208;6.376;-10.782;2022-08-25T04:22:40;27.65;;;10.88;;
56297;SDS011;42208;6.376;-10.782;2022-08-25T04:25:11;31.98;;;10.90;;
56297;SDS011;42208;6.376;-10.782;2022-08-25T04:27:39;17.77;;;10.15;;
56297;SDS011;42208;6.376;-10.782;2022-08-25T04:30:08;21.88;;;11.10;;
56297;SDS011;42208;6.376;-10.782;2022-08-25T04:32:37;30.67;;;11.70;;
56297;SDS011;42208;6.376;-10.782;2022-08-25T04:35:05;22.40;;;11.27;;
56297;SDS011;42208;6.376;-10.782;2022-08-25T04:37:34;23.83;;;12.85;;
56297;SDS011;42208;6.376;-10.782;2022-08-25T04:40:03;23.98;;;11.13;;
56297;SDS011;42208;6.376;-10.782;2022-08-25T04:42:32;20.52;;;11.20;;
56297;SDS011;42208;6.376;-10.782;2022-08-25T04:45:00;34.35;;;17.05;;
56297;SDS011;42208;6.376;-10.782;2022-08-25T04:47:29;29.00;;;14.48;;
56297;SDS011;42208;6.376;-10.782;2022-08-25T04:49:57;27.95;;;12.02;;
56297;SDS011;42208;6.376;-10.782;2022-08-25T04:52:25;25.05;;;12.40;;
56297;SDS011;42208;6.376;-10.782;2022-08-25T04:54:53;19.13;;;10.82;;
56297;SDS011;42208;6.376;-10.782;2022-08-25T04:57:21;31.75;;;12.82;;
56297;SDS011;42208;6.376;-10.782;2022-08-25T04:59:50;22.27;;;11.95;;
56297;SDS011;42208;6.376;-10.782;2022-08-25T05:02:18;24.42;;;12.57;;
56297;SDS011;42208;6.376;-10.782;2022-08-25T05:04:47;25.75;;;12.43;;
56297;SDS011;42208;6.376;-10.782;2022-08-25T05:07:15;26.23;;;12.75;;
56297;SDS011;42208;6.376;-10.782;2022-08-25T05:09:43;23.35;;;11.52;;
56297;SDS011;42208;6.376;-10.782;2022-08-25T05:12:11;25.92;;;12.38;;
56297;SDS011;42208;6.376;-10.782;2022-08-25T05:14:40;25.98;;;11.52;;
56297;SDS011;42208;6.376;-10.782;2022-08-25T05:17:09;22.05;;;11.00;;
56297;SDS011;42208;6.376;-10.782;2022-08-25T05:19:37;26.40;;;11.75;;
56297;SDS011;42208;6.376;-10.782;2022-08-25T05:22:05;26.48;;;12.27;;
56297;SDS011;42208;6.376;-10.782;2022-08-25T05:24:34;34.40;;;17.00;;
56297;SDS011;42208;6.376;-10.782;2022-08-25T05:27:02;47.95;;;21.48;;
56297;SDS011;42208;6.376;-10.782;2022-08-25T05:29:30;35.85;;;20.38;;
56297;SDS011;42208;6.376;-10.782;2022-08-25T05:31:58;35.22;;;16.92;;
56297;SDS011;42208;6.376;-10.782;2022-08-25T05:34:27;31.98;;;15.75;;
56297;SDS011;42208;6.376;-10.782;2022-08-25T05:36:55;30.52;;;14.20;;
56297;SDS011;42208;6.376;-10.782;2022-08-25T05:39:25;28.65;;;13.48;;
56297;SDS011;42208;6.376;-10.782;2022-08-25T05:41:53;26.83;;;12.65;;
56297;SDS011;42208;6.376;-10.782;2022-08-25T05:44:21;30.55;;;13.80;;
56297;SDS011;42208;6.376;-10.782;2022-08-25T05:46:49;23.25;;;13.27;;
56297;SDS011;42208;6.376;-10.782;2022-08-25T05:49:18;21.55;;;12.73;;
56297;SDS011;42208;6.376;-10.782;2022-08-25T05:51:46;36.28;;;17.48;;
56297;SDS011;42208;6.376;-10.782;2022-08-25T05:54:14;30.02;;;16.50;;
56297;SDS011;42208;6.376;-10.782;2022-08-25T05:56:42;30.40;;;13.25;;
56297;SDS011;42208;6.376;-10.782;2022-08-25T05:59:11;29.55;;;14.07;;
56297;SDS011;42208;6.376;-10.782;2022-08-25T06:01:39;28.10;;;13.77;;
56297;SDS011;42208;6.376;-10.782;2022-08-25T06:04:11;25.52;;;12.73;;
56297;SDS011;42208;6.376;-10.782;2022-08-25T06:06:40;23.10;;;12.95;;
56297;SDS011;42208;6.376;-10.782;2022-08-25T06:09:08;23.95;;;12.13;;
56297;SDS011;42208;6.376;-10.782;2022-08-25T06:11:38;26.50;;;13.40;;
56297;SDS011;42208;6.376;-10.782;2022-08-25T06:14:07;23.00;;;12.60;;
56297;SDS011;42208;6.376;-10.782;2022-08-25T06:16:36;29.55;;;12.07;;
56297;SDS011;42208;6.376;-10.782;2022-08-25T06:19:06;23.95;;;11.77;;
56297;SDS011;42208;6.376;-10.782;2022-08-25T06:21:36;27.53;;;13.17;;
56297;SDS011;42208;6.376;-10.782;2022-08-25T06:24:05;28.52;;;12.13;;
56297;SDS011;42208;6.376;-10.782;2022-08-25T06:26:40;33.97;;;14.25;;
56297;SDS011;42208;6.376;-10.782;2022-08-25T06:29:09;27.58;;;12.90;;
56297;SDS011;42208;6.376;-10.782;2022-08-25T06:31:37;28.27;;;12.52;;
56297;SDS011;42208;6.376;-10.782;2022-08-25T06:34:06;27.10;;;13.43;;
56297;SDS011;42208;6.376;-10.782;2022-08-25T06:36:34;31.25;;;13.63;;
56297;SDS011;42208;6.376;-10.782;2022-08-25T06:39:03;34.33;;;15.57;;
56297;SDS011;42208;6.376;-10.782;2022-08-25T06:41:31;35.75;;;15.57;;
56297;SDS011;42208;6.376;-10.782;2022-08-25T06:44:03;32.70;;;15.97;;
56297;SDS011;42208;6.376;-10.782;2022-08-25T06:46:32;39.05;;;15.95;;
56297;SDS011;42208;6.376;-10.782;2022-08-25T06:49:04;41.42;;;14.68;;
56297;SDS011;42208;6.376;-10.782;2022-08-25T06:51:33;32.92;;;14.43;;
56297;SDS011;42208;6.376;-10.782;2022-08-25T06:54:03;24.75;;;13.70;;
56297;SDS011;42208;6.376;-10.782;2022-08-25T06:56:32;33.85;;;15.85;;
56297;SDS011;42208;6.376;-10.782;2022-08-25T06:59:01;32.47;;;15.35;;
56297;SDS011;42208;6.376;-10.782;2022-08-25T07:01:31;25.48;;;14.48;;
56297;SDS011;42208;6.376;-10.782;2022-08-25T07:04:00;27.60;;;15.43;;
56297;SDS011;42208;6.376;-10.782;2022-08-25T07:06:33;29.40;;;14.27;;
56297;SDS011;42208;6.376;-10.782;2022-08-25T07:09:03;31.38;;;14.63;;
56297;SDS011;42208;6.376;-10.782;2022-08-25T07:11:32;31.98;;;15.48;;
56297;SDS011;42208;6.376;-10.782;2022-08-25T07:14:01;29.23;;;15.77;;
56297;SDS011;42208;6.376;-10.782;2022-08-25T07:16:31;36.25;;;17.67;;
56297;SDS011;42208;6.376;-10.782;2022-08-25T07:19:00;33.58;;;14.75;;
56297;SDS011;42208;6.376;-10.782;2022-08-25T07:21:31;26.35;;;14.77;;
56297;SDS011;42208;6.376;-10.782;2022-08-25T07:24:06;27.85;;;14.07;;
56297;SDS011;42208;6.376;-10.782;2022-08-25T07:26:36;27.85;;;14.15;;
56297;SDS011;42208;6.376;-10.782;2022-08-25T07:29:10;31.92;;;14.70;;
56297;SDS011;42208;6.376;-10.782;2022-08-25T07:31:44;34.17;;;17.25;;
56297;SDS011;42208;6.376;-10.782;2022-08-25T07:34:12;37.22;;;18.08;;
56297;SDS011;42208;6.376;-10.782;2022-08-25T07:36:42;29.65;;;16.23;;
56297;SDS011;42208;6.376;-10.782;2022-08-25T07:39:11;38.28;;;18.27;;
56297;SDS011;42208;6.376;-10.782;2022-08-25T07:41:40;32.78;;;18.40;;
56297;SDS011;42208;6.376;-10.782;2022-08-25T07:44:09;37.80;;;19.85;;
56297;SDS011;42208;6.376;-10.782;2022-08-25T07:46:39;34.85;;;18.52;;
56297;SDS011;42208;6.376;-10.782;2022-08-25T07:49:08;27.60;;;16.40;;
56297;SDS011;42208;6.376;-10.782;2022-08-25T07:51:43;31.27;;;15.65;;
56297;SDS011;42208;6.376;-10.782;2022-08-25T07:54:34;24.60;;;14.43;;
56297;SDS011;42208;6.376;-10.782;2022-08-25T07:57:04;35.25;;;15.68;;
56297;SDS011;42208;6.376;-10.782;2022-08-25T07:59:39;37.35;;;15.77;;
56297;SDS011;42208;6.376;-10.782;2022-08-25T08:02:09;31.75;;;15.82;;
56297;SDS011;42208;6.376;-10.782;2022-08-25T08:04:48;31.52;;;17.20;;
56297;SDS011;42208;6.376;-10.782;2022-08-25T08:07:22;35.35;;;16.80;;
56297;SDS011;42208;6.376;-10.782;2022-08-25T08:10:10;33.80;;;16.47;;
56297;SDS011;42208;6.376;-10.782;2022-08-25T08:13:00;31.17;;;14.45;;
56297;SDS011;42208;6.376;-10.782;2022-08-25T08:15:29;38.38;;;13.82;;
56297;SDS011;42208;6.376;-10.782;2022-08-25T08:17:58;24.63;;;13.50;;
56297;SDS011;42208;6.376;-10.782;2022-08-25T08:20:30;31.60;;;14.50;;
56297;SDS011;42208;6.376;-10.782;2022-08-25T08:23:09;35.45;;;14.45;;
56297;SDS011;42208;6.376;-10.782;2022-08-25T08:25:38;26.70;;;13.52;;
56297;SDS011;42208;6.376;-10.782;2022-08-25T08:28:06;36.95;;;15.20;;
56297;SDS011;42208;6.376;-10.782;2022-08-25T08:30:36;33.03;;;14.88;;
56297;SDS011;42208;6.376;-10.782;2022-08-25T08:33:18;27.58;;;13.82;;
56297;SDS011;42208;6.376;-10.782;2022-08-25T08:35:53;24.13;;;13.40;;
56297;SDS011;42208;6.376;-10.782;2022-08-25T08:38:31;21.42;;;12.45;;
56297;SDS011;42208;6.376;-10.782;2022-08-25T08:45:10;37.67;;;16.10;;
56297;SDS011;42208;6.376;-10.782;2022-08-25T08:50:37;32.28;;;16.20;;
56297;SDS011;42208;6.376;-10.782;2022-08-25T08:53:15;40.78;;;16.83;;
56297;SDS011;42208;6.376;-10.782;2022-08-25T08:55:54;35.60;;;13.93;;
56297;SDS011;42208;6.376;-10.782;2022-08-25T09:00:56;36.35;;;16.38;;
56297;SDS011;42208;6.376;-10.782;2022-08-25T09:06:04;37.92;;;14.02;;
56297;SDS011;42208;6.376;-10.782;2022-08-25T09:08:44;26.35;;;12.48;;
56297;SDS011;42208;6.376;-10.782;2022-08-25T09:11:17;30.67;;;14.93;;
56297;SDS011;42208;6.376;-10.782;2022-08-25T09:28:29;27.88;;;14.02;;
56297;SDS011;42208;6.376;-10.782;2022-08-25T09:31:02;34.17;;;14.82;;
56297;SDS011;42208;6.376;-10.782;2022-08-25T09:33:37;34.47;;;15.05;;
56297;SDS011;42208;6.376;-10.782;2022-08-25T09:36:07;25.60;;;13.88;;
56297;SDS011;42208;6.376;-10.782;2022-08-25T09:38:35;36.60;;;15.88;;
56297;SDS011;42208;6.376;-10.782;2022-08-25T09:41:06;30.35;;;14.02;;
56297;SDS011;42208;6.376;-10.782;2022-08-25T09:43:40;32.75;;;14.18;;
56297;SDS011;42208;6.376;-10.782;2022-08-25T09:46:12;26.45;;;14.35;;
56297;SDS011;42208;6.376;-10.782;2022-08-25T09:48:50;24.55;;;13.00;;
56297;SDS011;42208;6.376;-10.782;2022-08-25T09:51:33;31.42;;;12.68;;
56297;SDS011;42208;6.376;-10.782;2022-08-25T09:56:56;26.77;;;13.77;;
56297;SDS011;42208;6.376;-10.782;2022-08-25T09:59:28;38.03;;;14.13;;
56297;SDS011;42208;6.376;-10.782;2022-08-25T10:04:53;27.70;;;14.65;;
56297;SDS011;42208;6.376;-10.782;2022-08-25T10:12:58;30.38;;;12.18;;
56297;SDS011;42208;6.376;-10.782;2022-08-25T10:15:33;28.88;;;13.48;;
56297;SDS011;42208;6.376;-10.782;2022-08-25T10:18:24;21.75;;;12.80;;
56297;SDS011;42208;6.376;-10.782;2022-08-25T10:23:37;26.83;;;14.40;;
56297;SDS011;42208;6.376;-10.782;2022-08-25T10:26:24;33.65;;;15.43;;
56297;SDS011;42208;6.376;-10.782;2022-08-25T10:43:52;23.63;;;12.80;;
56297;SDS011;42208;6.376;-10.782;2022-08-25T10:46:45;31.10;;;14.27;;
56297;SDS011;42208;6.376;-10.782;2022-08-25T10:49:23;35.45;;;14.60;;
56297;SDS011;42208;6.376;-10.782;2022-08-25T10:52:04;28.58;;;12.57;;
56297;SDS011;42208;6.376;-10.782;2022-08-25T10:54:48;23.08;;;12.85;;
56297;SDS011;42208;6.376;-10.782;2022-08-25T10:57:43;24.65;;;12.75;;
56297;SDS011;42208;6.376;-10.782;2022-08-25T11:00:25;24.55;;;12.77;;
56297;SDS011;42208;6.376;-10.782;2022-08-25T11:06:41;20.23;;;10.93;;
56297;SDS011;42208;6.376;-10.782;2022-08-25T11:09:22;31.73;;;12.05;;
56297;SDS011;42208;6.376;-10.782;2022-08-25T11:11:59;28.70;;;14.00;;
56297;SDS011;42208;6.376;-10.782;2022-08-25T11:14:56;23.88;;;10.90;;
56297;SDS011;42208;6.376;-10.782;2022-08-25T11:17:42;35.70;;;15.70;;
56297;SDS011;42208;6.376;-10.782;2022-08-25T11:20:34;35.13;;;12.77;;
56297;SDS011;42208;6.376;-10.782;2022-08-25T11:25:50;28.30;;;12.93;;
56297;SDS011;42208;6.376;-10.782;2022-08-25T11:31:29;25.55;;;15.32;;
56297;SDS011;42208;6.376;-10.782;2022-08-25T11:34:05;26.98;;;13.25;;
56297;SDS011;42208;6.376;-10.782;2022-08-25T11:36:37;26.42;;;12.27;;
56297;SDS011;42208;6.376;-10.782;2022-08-25T11:45:14;24.92;;;12.10;;
56297;SDS011;42208;6.376;-10.782;2022-08-25T11:48:17;35.53;;;11.75;;
56297;SDS011;42208;6.376;-10.782;2022-08-25T11:53:50;30.60;;;13.02;;
56297;SDS011;42208;6.376;-10.782;2022-08-25T11:56:35;33.50;;;12.52;;
56297;SDS011;42208;6.376;-10.782;2022-08-25T11:59:06;25.48;;;13.07;;
56297;SDS011;42208;6.376;-10.782;2022-08-25T12:04:12;23.05;;;11.45;;
56297;SDS011;42208;6.376;-10.782;2022-08-25T12:10:06;30.52;;;12.43;;
56297;SDS011;42208;6.376;-10.782;2022-08-25T12:12:29;27.00;;;14.10;;
56297;SDS011;42208;6.376;-10.782;2022-08-25T12:18:12;30.65;;;12.40;;
56297;SDS011;42208;6.376;-10.782;2022-08-25T12:26:12;22.75;;;11.30;;
56297;SDS011;42208;6.376;-10.782;2022-08-25T12:31:56;33.03;;;13.18;;
56297;SDS011;42208;6.376;-10.782;2022-08-25T12:34:48;25.67;;;13.35;;
56297;SDS011;42208;6.376;-10.782;2022-08-25T12:37:22;26.85;;;11.63;;
56297;SDS011;42208;6.376;-10.782;2022-08-25T12:47:51;23.95;;;11.38;;
56297;SDS011;42208;6.376;-10.782;2022-08-25T12:55:43;29.85;;;13.48;;
56297;SDS011;42208;6.376;-10.782;2022-08-25T12:58:48;26.40;;;13.77;;
56297;SDS011;42208;6.376;-10.782;2022-08-25T13:04:24;22.58;;;11.57;;
56297;SDS011;42208;6.376;-10.782;2022-08-25T13:07:08;21.02;;;11.00;;
56297;SDS011;42208;6.376;-10.782;2022-08-25T13:12:45;28.70;;;12.43;;
56297;SDS011;42208;6.376;-10.782;2022-08-25T13:15:37;32.22;;;12.95;;
56297;SDS011;42208;6.376;-10.782;2022-08-25T13:18:15;29.05;;;13.35;;
56297;SDS011;42208;6.376;-10.782;2022-08-25T13:20:49;22.90;;;11.45;;
56297;SDS011;42208;6.376;-10.782;2022-08-25T13:23:26;29.42;;;12.85;;
56297;SDS011;42208;6.376;-10.782;2022-08-25T13:25:56;36.45;;;12.50;;
56297;SDS011;42208;6.376;-10.782;2022-08-25T13:28:36;32.25;;;11.23;;
56297;SDS011;42208;6.376;-10.782;2022-08-25T13:31:15;25.15;;;12.15;;
56297;SDS011;42208;6.376;-10.782;2022-08-25T13:33:54;25.52;;;11.65;;
56297;SDS011;42208;6.376;-10.782;2022-08-25T13:36:25;31.63;;;12.93;;
56297;SDS011;42208;6.376;-10.782;2022-08-25T13:39:08;30.55;;;15.80;;
56297;SDS011;42208;6.376;-10.782;2022-08-25T13:42:06;37.90;;;12.90;;
56297;SDS011;42208;6.376;-10.782;2022-08-25T13:44:40;34.08;;;12.93;;
56297;SDS011;42208;6.376;-10.782;2022-08-25T13:47:31;31.02;;;12.40;;
56297;SDS011;42208;6.376;-10.782;2022-08-25T13:50:16;34.83;;;12.85;;
56297;SDS011;42208;6.376;-10.782;2022-08-25T13:53:12;26.88;;;12.52;;
56297;SDS011;42208;6.376;-10.782;2022-08-25T13:55:52;29.00;;;12.27;;
56297;SDS011;42208;6.376;-10.782;2022-08-25T13:58:25;34.20;;;12.57;;
56297;SDS011;42208;6.376;-10.782;2022-08-25T14:12:30;29.45;;;11.75;;
56297;SDS011;42208;6.376;-10.782;2022-08-25T14:20:55;28.75;;;12.60;;
56297;SDS011;42208;6.376;-10.782;2022-08-25T14:23:25;36.15;;;14.85;;
56297;SDS011;42208;6.376;-10.782;2022-08-25T14:25:57;26.35;;;13.68;;
56297;SDS011;42208;6.376;-10.782;2022-08-25T14:28:26;35.22;;;15.55;;
56297;SDS011;42208;6.376;-10.782;2022-08-25T14:30:58;36.38;;;16.92;;
56297;SDS011;42208;6.376;-10.782;2022-08-25T14:33:41;38.53;;;20.38;;
56297;SDS011;42208;6.376;-10.782;2022-08-25T14:36:29;25.77;;;14.82;;
56297;SDS011;42208;6.376;-10.782;2022-08-25T14:39:02;21.58;;;12.43;;
56297;SDS011;42208;6.376;-10.782;2022-08-25T14:41:37;36.00;;;16.40;;
56297;SDS011;42208;6.376;-10.782;2022-08-25T14:44:07;41.70;;;18.38;;
56297;SDS011;42208;6.376;-10.782;2022-08-25T14:46:40;25.67;;;11.60;;
56297;SDS011;42208;6.376;-10.782;2022-08-25T14:49:14;22.90;;;12.65;;
56297;SDS011;42208;6.376;-10.782;2022-08-25T14:51:51;23.25;;;13.15;;
56297;SDS011;42208;6.376;-10.782;2022-08-25T14:54:22;28.48;;;13.80;;
56297;SDS011;42208;6.376;-10.782;2022-08-25T14:56:55;29.20;;;16.50;;
56297;SDS011;42208;6.376;-10.782;2022-08-25T14:59:24;28.80;;;17.52;;
56297;SDS011;42208;6.376;-10.782;2022-08-25T15:02:12;33.22;;;14.25;;
56297;SDS011;42208;6.376;-10.782;2022-08-25T15:04:51;27.55;;;12.57;;
56297;SDS011;42208;6.376;-10.782;2022-08-25T15:07:24;24.48;;;13.90;;
56297;SDS011;42208;6.376;-10.782;2022-08-25T15:09:58;35.10;;;13.93;;
56297;SDS011;42208;6.376;-10.782;2022-08-25T15:12:27;30.70;;;13.98;;
56297;SDS011;42208;6.376;-10.782;2022-08-25T15:15:13;38.08;;;16.05;;
56297;SDS011;42208;6.376;-10.782;2022-08-25T15:17:44;42.30;;;18.92;;
56297;SDS011;42208;6.376;-10.782;2022-08-25T15:20:16;37.47;;;20.48;;
56297;SDS011;42208;6.376;-10.782;2022-08-25T15:22:45;41.83;;;17.15;;
56297;SDS011;42208;6.376;-10.782;2022-08-25T15:25:16;44.38;;;18.98;;
56297;SDS011;42208;6.376;-10.782;2022-08-25T15:27:50;38.80;;;16.55;;
56297;SDS011;42208;6.376;-10.782;2022-08-25T15:30:18;34.38;;;14.23;;
56297;SDS011;42208;6.376;-10.782;2022-08-25T15:32:57;43.67;;;18.38;;
56297;SDS011;42208;6.376;-10.782;2022-08-25T15:35:33;40.20;;;22.10;;
56297;SDS011;42208;6.376;-10.782;2022-08-25T15:38:02;31.38;;;13.68;;
56297;SDS011;42208;6.376;-10.782;2022-08-25T15:40:31;37.22;;;21.92;;
56297;SDS011;42208;6.376;-10.782;2022-08-25T15:43:04;40.25;;;15.07;;
56297;SDS011;42208;6.376;-10.782;2022-08-25T15:45:34;65.50;;;13.77;;
56297;SDS011;42208;6.376;-10.782;2022-08-25T15:48:06;51.65;;;17.25;;
56297;SDS011;42208;6.376;-10.782;2022-08-25T15:50:35;83.90;;;17.75;;
56297;SDS011;42208;6.376;-10.782;2022-08-25T15:53:05;21.65;;;12.23;;
56297;SDS011;42208;6.376;-10.782;2022-08-25T15:55:37;26.05;;;13.20;;
56297;SDS011;42208;6.376;-10.782;2022-08-25T15:58:08;36.33;;;13.43;;
56297;SDS011;42208;6.376;-10.782;2022-08-25T16:00:43;30.55;;;13.35;;
56297;SDS011;42208;6.376;-10.782;2022-08-25T16:03:22;27.25;;;12.48;;
56297;SDS011;42208;6.376;-10.782;2022-08-25T16:05:51;36.40;;;13.68;;
56297;SDS011;42208;6.376;-10.782;2022-08-25T16:08:20;34.92;;;13.75;;
56297;SDS011;42208;6.376;-10.782;2022-08-25T16:10:48;27.60;;;13.38;;
56297;SDS011;42208;6.376;-10.782;2022-08-25T16:13:17;30.90;;;13.60;;
56297;SDS011;42208;6.376;-10.782;2022-08-25T16:15:46;27.92;;;12.57;;
56297;SDS011;42208;6.376;-10.782;2022-08-25T16:18:20;28.50;;;12.38;;
56297;SDS011;42208;6.376;-10.782;2022-08-25T16:20:49;37.17;;;13.55;;
56297;SDS011;42208;6.376;-10.782;2022-08-25T16:23:19;25.55;;;13.13;;
56297;SDS011;42208;6.376;-10.782;2022-08-25T16:25:47;39.40;;;14.23;;
56297;SDS011;42208;6.376;-10.782;2022-08-25T16:28:17;31.48;;;14.20;;
56297;SDS011;42208;6.376;-10.782;2022-08-25T16:30:50;45.63;;;13.75;;
56297;SDS011;42208;6.376;-10.782;2022-08-25T16:33:19;33.03;;;13.68;;
56297;SDS011;42208;6.376;-10.782;2022-08-25T16:35:48;41.72;;;17.67;;
56297;SDS011;42208;6.376;-10.782;2022-08-25T16:38:16;52.25;;;22.00;;
56297;SDS011;42208;6.376;-10.782;2022-08-25T16:40:45;53.25;;;20.60;;
56297;SDS011;42208;6.376;-10.782;2022-08-25T16:43:14;45.50;;;23.25;;
56297;SDS011;42208;6.376;-10.782;2022-08-25T16:45:42;39.28;;;20.73;;
56297;SDS011;42208;6.376;-10.782;2022-08-25T16:48:10;44.75;;;15.40;;
56297;SDS011;42208;6.376;-10.782;2022-08-25T16:50:38;50.40;;;26.13;;
56297;SDS011;42208;6.376;-10.782;2022-08-25T16:53:07;42.83;;;16.48;;
56297;SDS011;42208;6.376;-10.782;2022-08-25T16:55:35;40.22;;;14.98;;
56297;SDS011;42208;6.376;-10.782;2022-08-25T16:58:06;36.42;;;14.57;;
56297;SDS011;42208;6.376;-10.782;2022-08-25T17:00:40;37.53;;;16.15;;